Bilbao, Spain

7:44 AM CEST on August 29, 2016 (GMT +0200)
Urrutia Kalea | | Change Station

Elev 95 ft 43.26 °N, 2.94 °W | Updated 1 minute ago

Mostly Cloudy
Mostly Cloudy
66.7 °F
Feels Like 66.7 °F
N
1.2
Wind Variable Wind from ESE
Gusts 2.5 mph

Today
High -- | Low -- °F
--% Chance of Precip.
Yesterday
High -- | Low -- °F
Precip. -- in
Pressure 30.27 in
Visibility 6.2 miles
Clouds Scattered Clouds 4000 ft
Mostly Cloudy 6000 ft
Dew Point 60 °F
Humidity 78%
Rainfall 0.00 in
Snow Depth Not available.
7:32 AM 8:51 PM
Waning Crescent, 11% visible
METAR LEBB 290530Z VRB01KT 9999 SCT040 BKN060 17/17 Q1025 TEMPO DZ
Pressure 30.27 in
Visibility 6.2 miles
Clouds Scattered Clouds 4000 ft
Mostly Cloudy 6000 ft
Dew Point 60 °F
Humidity 78%
Rainfall 0.00 in
Snow Depth Not available.
7:32 AM 8:51 PM
Waning Crescent, 11% visible
METAR LEBB 290530Z VRB01KT 9999 SCT040 BKN060 17/17 Q1025 TEMPO DZ

10-Day Weather Forecast

×

Almanac

Astronomy

Aug. 29, 2016 Rise Set
Actual Time
Civil Twilight
Nautical Twilight
Astronomical Twilight
Moon
Length of Visible Light
Length of Day
Tomorrow will be .
, % of the Moon is Illuminated

Today's Extremes

Country Highs Country Lows

Community

WunderPhotos

Upload Photos

1,935,800 photos uploaded!

WunderBlog® & News

Nearby

Air Quality

  Air Quality AQ Index Pollutant
Not available.

Snow Depth

Station Depth Elevation

Earthquake Activity

City Distance Mag. Time & Date
Minimum magnitude displayed is 2.5.

Coastal Water Temperatures

Place Temperature

Stations

Nearby Weather Stations

Station Location Temp. Windchill Dew Point Humidity Wind Precip. Elev Updated Type